Aérodrome :
LOGIN :

S'inscrire | Disclaimer

   EN    FR    IT 

 










Légende :    VFR   VFR Marginal   IFR   IFR Intensif   IFR Très Intensif
Visi : 
Plafond : 
>= 8 km
>= 3000ft
5 à 8 km
1000 à 3000 ft
1500m à 5 km
500 à 1000 ft
800 à 1500m
200 à 500 ft
< 800m
< 200 ft
Symboles :   Orages  Brouillard  Fortes neiges  Fortes précipitations  Vent > 20 kt
SIGMETs :   Divers  Orages  Givrage  Turbulence  Onde Orograph.  Cendres Volcan.






- Altitude de l'aérodrome : 100 ft


EBDT - Schaffen

DERNIER METAR :
  • 172025Z AUTO 24013KT 9999 SCT023/// BKN028/// BKN100/// 08/04 Q1016 WHT

METARs EXPIRÉS :
  • 172005Z AUTO 24014KT 9999 SCT023/// BKN028/// 08/04 Q1016 WHT
  • 171945Z AUTO 24012KT 9999 SCT023/// BKN030/// 08/04 Q1015 WHT
  • 171925Z AUTO 24014G26KT 9999 SCT025/// BKN030/// BKN036/// 09/04 Q1015 BLU
  • 171855Z AUTO 24013G24KT 9999 FEW028/// OVC037/// 09/03 Q1015 BLU
  • 171825Z AUTO 24011G21KT 9999 FEW035/// BKN041/// OVC050/// 08/03 Q1015 BLU
  • 171755Z AUTO 23015G28KT 9999 FEW030/// SCT039/// BKN045/// 08/03 Q1014 BLU

TAF TAF EBDT
Valide du 17 à 19h jusqu'au 18 à 07h UTC


171541Z 1719/1807 23012G22KT 9999 SCT028 BKN160
PROB40
TEMPO 1719/1824 25015G26KT 6000 -SHRA FEW013 SCT015TCU BKN025
PROB30
TEMPO 1719/1820 22015G30KT 2500 SHRAGS TSRA FEW008 SCT012CB BKN030
BECMG 1721/1723 NSW FEW020 SCT200



MET'MAP, la Météo Aéronautique d'un coup d'oeil ! - Copyright ORBIFLY Décembre 2007 - Disclaimer

ORBIFLY MET'MAP TEAM :

Programmation & Développement : Alexandra Zaïnal
Sur une idée originale de : Baudouin d'Aumeries
Assistance à la programmation : Marc-Olivier Méhu
Soutien technique & logistique : Manuel Goepfert

Contact : metmap@orbifly.com




SOURCES & CREDITS :

   NOAA